sensor_id;sensor_type;location;lat;lon;timestamp;temperature;humidity
46900;DHT22;32647;49.382;7.078;2024-02-14T00:02:25;6.10;99.90
46900;DHT22;32647;49.382;7.078;2024-02-14T00:05:13;6.10;99.90
46900;DHT22;32647;49.382;7.078;2024-02-14T00:08:00;6.10;99.90
46900;DHT22;32647;49.382;7.078;2024-02-14T00:10:46;6.00;99.90
46900;DHT22;32647;49.382;7.078;2024-02-14T00:13:34;5.80;99.90
46900;DHT22;32647;49.382;7.078;2024-02-14T00:16:20;5.70;99.90
46900;DHT22;32647;49.382;7.078;2024-02-14T00:19:06;5.60;99.90
46900;DHT22;32647;49.382;7.078;2024-02-14T00:21:52;5.60;99.90
46900;DHT22;32647;49.382;7.078;2024-02-14T00:24:37;5.60;99.90
46900;DHT22;32647;49.382;7.078;2024-02-14T00:27:24;5.70;99.90
46900;DHT22;32647;49.382;7.078;2024-02-14T00:30:11;5.70;99.90
46900;DHT22;32647;49.382;7.078;2024-02-14T00:32:58;5.70;99.90
46900;DHT22;32647;49.382;7.078;2024-02-14T00:35:44;5.60;99.90
46900;DHT22;32647;49.382;7.078;2024-02-14T00:38:30;5.80;99.90
46900;DHT22;32647;49.382;7.078;2024-02-14T00:41:16;5.80;99.90
46900;DHT22;32647;49.382;7.078;2024-02-14T00:44:02;5.90;99.90
46900;DHT22;32647;49.382;7.078;2024-02-14T00:46:48;5.80;99.90
46900;DHT22;32647;49.382;7.078;2024-02-14T00:49:35;5.80;99.90
46900;DHT22;32647;49.382;7.078;2024-02-14T00:52:21;5.70;99.90
46900;DHT22;32647;49.382;7.078;2024-02-14T00:55:07;5.70;99.90
46900;DHT22;32647;49.382;7.078;2024-02-14T00:57:53;5.70;99.90
46900;DHT22;32647;49.382;7.078;2024-02-14T01:00:40;5.70;99.90
46900;DHT22;32647;49.382;7.078;2024-02-14T01:03:26;5.80;99.90
46900;DHT22;32647;49.382;7.078;2024-02-14T01:06:12;5.80;99.90
46900;DHT22;32647;49.382;7.078;2024-02-14T01:08:59;5.90;99.90
46900;DHT22;32647;49.382;7.078;2024-02-14T01:11:45;5.90;99.90
46900;DHT22;32647;49.382;7.078;2024-02-14T01:14:31;5.90;99.90
46900;DHT22;32647;49.382;7.078;2024-02-14T01:17:17;5.90;99.90
46900;DHT22;32647;49.382;7.078;2024-02-14T01:20:05;5.90;99.90
46900;DHT22;32647;49.382;7.078;2024-02-14T01:22:53;5.90;99.90
46900;DHT22;32647;49.382;7.078;2024-02-14T01:25:39;5.90;99.90
46900;DHT22;32647;49.382;7.078;2024-02-14T01:28:25;5.90;99.90
46900;DHT22;32647;49.382;7.078;2024-02-14T01:31:11;6.00;99.90
46900;DHT22;32647;49.382;7.078;2024-02-14T01:33:57;6.00;99.90
46900;DHT22;32647;49.382;7.078;2024-02-14T01:36:46;6.00;99.90
46900;DHT22;32647;49.382;7.078;2024-02-14T01:39:32;5.90;99.90
46900;DHT22;32647;49.382;7.078;2024-02-14T01:42:18;5.90;99.90
46900;DHT22;32647;49.382;7.078;2024-02-14T01:45:04;5.90;99.90
46900;DHT22;32647;49.382;7.078;2024-02-14T01:47:51;6.00;99.90
46900;DHT22;32647;49.382;7.078;2024-02-14T01:50:37;6.00;99.90
46900;DHT22;32647;49.382;7.078;2024-02-14T01:53:24;6.00;99.90
46900;DHT22;32647;49.382;7.078;2024-02-14T01:56:11;6.10;99.90
46900;DHT22;32647;49.382;7.078;2024-02-14T01:58:59;6.00;99.90
46900;DHT22;32647;49.382;7.078;2024-02-14T02:01:45;6.10;99.90
46900;DHT22;32647;49.382;7.078;2024-02-14T02:04:32;6.10;99.90
46900;DHT22;32647;49.382;7.078;2024-02-14T02:07:18;6.10;99.90
46900;DHT22;32647;49.382;7.078;2024-02-14T02:10:06;6.10;99.90
46900;DHT22;32647;49.382;7.078;2024-02-14T02:13:00;6.10;99.90
46900;DHT22;32647;49.382;7.078;2024-02-14T02:15:46;6.20;99.90
46900;DHT22;32647;49.382;7.078;2024-02-14T02:18:32;6.20;99.90
46900;DHT22;32647;49.382;7.078;2024-02-14T02:21:18;6.10;99.90
46900;DHT22;32647;49.382;7.078;2024-02-14T02:24:08;6.10;99.90
46900;DHT22;32647;49.382;7.078;2024-02-14T02:26:55;6.10;99.90
46900;DHT22;32647;49.382;7.078;2024-02-14T02:29:42;6.10;99.90
46900;DHT22;32647;49.382;7.078;2024-02-14T02:32:28;6.10;99.90
46900;DHT22;32647;49.382;7.078;2024-02-14T02:35:14;6.20;99.90
46900;DHT22;32647;49.382;7.078;2024-02-14T02:38:00;6.20;99.90
46900;DHT22;32647;49.382;7.078;2024-02-14T02:40:46;6.30;99.90
46900;DHT22;32647;49.382;7.078;2024-02-14T02:43:33;6.30;99.90
46900;DHT22;32647;49.382;7.078;2024-02-14T02:46:19;6.30;99.90
46900;DHT22;32647;49.382;7.078;2024-02-14T02:49:05;6.30;99.90
46900;DHT22;32647;49.382;7.078;2024-02-14T02:51:51;6.20;99.90
46900;DHT22;32647;49.382;7.078;2024-02-14T02:54:38;6.20;99.90
46900;DHT22;32647;49.382;7.078;2024-02-14T02:57:26;6.30;99.90
46900;DHT22;32647;49.382;7.078;2024-02-14T03:00:13;6.30;99.90
46900;DHT22;32647;49.382;7.078;2024-02-14T03:02:59;6.30;99.90
46900;DHT22;32647;49.382;7.078;2024-02-14T03:05:45;6.30;99.90
46900;DHT22;32647;49.382;7.078;2024-02-14T03:08:32;6.30;99.90
46900;DHT22;32647;49.382;7.078;2024-02-14T03:11:20;6.20;99.90
46900;DHT22;32647;49.382;7.078;2024-02-14T03:14:06;6.30;99.90
46900;DHT22;32647;49.382;7.078;2024-02-14T03:16:53;6.30;99.90
46900;DHT22;32647;49.382;7.078;2024-02-14T03:19:41;6.40;99.90
46900;DHT22;32647;49.382;7.078;2024-02-14T03:22:27;6.40;99.90
46900;DHT22;32647;49.382;7.078;2024-02-14T03:25:16;6.50;99.90
46900;DHT22;32647;49.382;7.078;2024-02-14T03:28:03;6.50;99.90
46900;DHT22;32647;49.382;7.078;2024-02-14T03:30:53;6.50;99.90
46900;DHT22;32647;49.382;7.078;2024-02-14T03:33:39;6.50;99.90
46900;DHT22;32647;49.382;7.078;2024-02-14T03:36:25;6.60;99.90
46900;DHT22;32647;49.382;7.078;2024-02-14T03:39:14;6.60;99.90
46900;DHT22;32647;49.382;7.078;2024-02-14T03:42:00;6.60;99.90
46900;DHT22;32647;49.382;7.078;2024-02-14T03:44:48;6.50;99.90
46900;DHT22;32647;49.382;7.078;2024-02-14T03:47:34;6.50;99.90
46900;DHT22;32647;49.382;7.078;2024-02-14T03:50:21;6.50;99.90
46900;DHT22;32647;49.382;7.078;2024-02-14T03:53:07;6.50;99.90
46900;DHT22;32647;49.382;7.078;2024-02-14T03:55:53;6.40;99.90
46900;DHT22;32647;49.382;7.078;2024-02-14T03:58:39;6.40;99.90
46900;DHT22;32647;49.382;7.078;2024-02-14T04:01:25;6.40;99.90
46900;DHT22;32647;49.382;7.078;2024-02-14T04:04:13;6.30;99.90
46900;DHT22;32647;49.382;7.078;2024-02-14T04:06:59;6.30;99.90
46900;DHT22;32647;49.382;7.078;2024-02-14T04:09:46;6.30;99.90
46900;DHT22;32647;49.382;7.078;2024-02-14T04:12:32;6.30;99.90
46900;DHT22;32647;49.382;7.078;2024-02-14T04:15:18;6.20;99.90
46900;DHT22;32647;49.382;7.078;2024-02-14T04:18:04;6.30;99.90
46900;DHT22;32647;49.382;7.078;2024-02-14T04:20:51;6.30;99.90
46900;DHT22;32647;49.382;7.078;2024-02-14T04:23:37;6.30;99.90
46900;DHT22;32647;49.382;7.078;2024-02-14T04:26:26;6.30;99.90
46900;DHT22;32647;49.382;7.078;2024-02-14T04:29:12;6.30;99.90
46900;DHT22;32647;49.382;7.078;2024-02-14T04:31:59;6.20;99.90
46900;DHT22;32647;49.382;7.078;2024-02-14T04:34:45;6.20;99.90
46900;DHT22;32647;49.382;7.078;2024-02-14T04:37:31;6.20;99.90
46900;DHT22;32647;49.382;7.078;2024-02-14T04:40:18;6.10;99.90
46900;DHT22;32647;49.382;7.078;2024-02-14T04:43:05;6.20;99.90
46900;DHT22;32647;49.382;7.078;2024-02-14T04:45:51;6.20;99.90
46900;DHT22;32647;49.382;7.078;2024-02-14T04:48:37;6.20;99.90
46900;DHT22;32647;49.382;7.078;2024-02-14T04:51:23;6.20;99.90
46900;DHT22;32647;49.382;7.078;2024-02-14T04:54:09;6.10;99.90
46900;DHT22;32647;49.382;7.078;2024-02-14T04:56:55;6.10;99.90
46900;DHT22;32647;49.382;7.078;2024-02-14T04:59:41;6.10;99.90
46900;DHT22;32647;49.382;7.078;2024-02-14T05:02:27;6.10;99.90
46900;DHT22;32647;49.382;7.078;2024-02-14T05:05:13;6.10;99.90
46900;DHT22;32647;49.382;7.078;2024-02-14T05:07:59;6.10;99.90
46900;DHT22;32647;49.382;7.078;2024-02-14T05:10:45;6.10;99.90
46900;DHT22;32647;49.382;7.078;2024-02-14T05:13:32;6.10;99.90
46900;DHT22;32647;49.382;7.078;2024-02-14T05:16:21;6.10;99.90
46900;DHT22;32647;49.382;7.078;2024-02-14T05:19:07;6.10;99.90
46900;DHT22;32647;49.382;7.078;2024-02-14T05:21:53;6.10;99.90
46900;DHT22;32647;49.382;7.078;2024-02-14T05:24:38;6.10;99.90
46900;DHT22;32647;49.382;7.078;2024-02-14T05:27:24;6.10;99.90
46900;DHT22;32647;49.382;7.078;2024-02-14T05:30:11;6.10;99.90
46900;DHT22;32647;49.382;7.078;2024-02-14T05:32:57;6.10;99.90
46900;DHT22;32647;49.382;7.078;2024-02-14T05:35:43;6.10;99.90
46900;DHT22;32647;49.382;7.078;2024-02-14T05:38:29;6.10;99.90
46900;DHT22;32647;49.382;7.078;2024-02-14T05:41:15;6.10;99.90
46900;DHT22;32647;49.382;7.078;2024-02-14T05:44:03;6.20;99.90
46900;DHT22;32647;49.382;7.078;2024-02-14T05:46:49;6.20;99.90
46900;DHT22;32647;49.382;7.078;2024-02-14T05:49:35;6.20;99.90
46900;DHT22;32647;49.382;7.078;2024-02-14T05:52:21;6.20;99.90
46900;DHT22;32647;49.382;7.078;2024-02-14T05:55:08;6.20;99.90
46900;DHT22;32647;49.382;7.078;2024-02-14T05:57:54;6.20;99.90
46900;DHT22;32647;49.382;7.078;2024-02-14T06:00:40;6.20;99.90
46900;DHT22;32647;49.382;7.078;2024-02-14T06:03:26;6.20;99.90
46900;DHT22;32647;49.382;7.078;2024-02-14T06:06:13;6.20;99.90
46900;DHT22;32647;49.382;7.078;2024-02-14T06:08:59;6.20;99.90
46900;DHT22;32647;49.382;7.078;2024-02-14T06:11:45;6.20;99.90
46900;DHT22;32647;49.382;7.078;2024-02-14T06:14:31;6.30;99.90
46900;DHT22;32647;49.382;7.078;2024-02-14T06:17:19;6.20;99.90
46900;DHT22;32647;49.382;7.078;2024-02-14T06:20:06;6.20;99.90
46900;DHT22;32647;49.382;7.078;2024-02-14T06:22:53;6.30;99.90
46900;DHT22;32647;49.382;7.078;2024-02-14T06:25:40;6.30;99.90
46900;DHT22;32647;49.382;7.078;2024-02-14T06:28:26;6.30;99.90
46900;DHT22;32647;49.382;7.078;2024-02-14T06:31:13;6.30;99.90
46900;DHT22;32647;49.382;7.078;2024-02-14T06:33:59;6.30;99.90
46900;DHT22;32647;49.382;7.078;2024-02-14T06:36:48;6.30;99.90
46900;DHT22;32647;49.382;7.078;2024-02-14T06:39:34;6.30;99.90
46900;DHT22;32647;49.382;7.078;2024-02-14T06:42:20;6.30;99.90
46900;DHT22;32647;49.382;7.078;2024-02-14T06:45:07;6.30;99.90
46900;DHT22;32647;49.382;7.078;2024-02-14T06:47:53;6.40;99.90
46900;DHT22;32647;49.382;7.078;2024-02-14T06:50:40;6.40;99.90
46900;DHT22;32647;49.382;7.078;2024-02-14T06:53:26;6.40;99.90
46900;DHT22;32647;49.382;7.078;2024-02-14T06:56:11;6.40;99.90
46900;DHT22;32647;49.382;7.078;2024-02-14T06:58:57;6.50;99.90
46900;DHT22;32647;49.382;7.078;2024-02-14T07:01:45;6.50;99.90
46900;DHT22;32647;49.382;7.078;2024-02-14T07:04:31;6.60;99.90
46900;DHT22;32647;49.382;7.078;2024-02-14T07:07:17;6.60;99.90
46900;DHT22;32647;49.382;7.078;2024-02-14T07:10:04;6.50;99.90
46900;DHT22;32647;49.382;7.078;2024-02-14T07:12:52;6.60;99.90
46900;DHT22;32647;49.382;7.078;2024-02-14T07:15:38;6.60;99.90
46900;DHT22;32647;49.382;7.078;2024-02-14T07:18:24;6.60;99.90
46900;DHT22;32647;49.382;7.078;2024-02-14T07:21:10;6.70;99.90
46900;DHT22;32647;49.382;7.078;2024-02-14T07:23:55;6.60;99.90
46900;DHT22;32647;49.382;7.078;2024-02-14T07:26:41;6.60;99.90
46900;DHT22;32647;49.382;7.078;2024-02-14T07:29:30;6.70;99.90
46900;DHT22;32647;49.382;7.078;2024-02-14T07:32:17;6.70;99.90
46900;DHT22;32647;49.382;7.078;2024-02-14T07:35:03;6.80;99.90
46900;DHT22;32647;49.382;7.078;2024-02-14T07:37:50;6.80;99.90
46900;DHT22;32647;49.382;7.078;2024-02-14T07:40:36;6.80;99.90
46900;DHT22;32647;49.382;7.078;2024-02-14T07:43:22;6.80;99.90
46900;DHT22;32647;49.382;7.078;2024-02-14T07:46:08;6.90;99.90
46900;DHT22;32647;49.382;7.078;2024-02-14T07:48:55;6.90;99.90
46900;DHT22;32647;49.382;7.078;2024-02-14T07:51:41;6.90;99.90
46900;DHT22;32647;49.382;7.078;2024-02-14T07:54:27;6.90;99.90
46900;DHT22;32647;49.382;7.078;2024-02-14T07:57:13;6.90;99.90
46900;DHT22;32647;49.382;7.078;2024-02-14T07:59:59;7.00;99.90
46900;DHT22;32647;49.382;7.078;2024-02-14T08:02:45;7.00;99.90
46900;DHT22;32647;49.382;7.078;2024-02-14T08:05:31;7.00;99.90
46900;DHT22;32647;49.382;7.078;2024-02-14T08:08:17;7.00;99.90
46900;DHT22;32647;49.382;7.078;2024-02-14T08:11:03;7.00;99.90
46900;DHT22;32647;49.382;7.078;2024-02-14T08:13:49;7.00;99.90
46900;DHT22;32647;49.382;7.078;2024-02-14T08:16:36;7.00;99.90
46900;DHT22;32647;49.382;7.078;2024-02-14T08:19:22;7.10;99.90
46900;DHT22;32647;49.382;7.078;2024-02-14T08:22:08;7.10;99.90
46900;DHT22;32647;49.382;7.078;2024-02-14T08:24:54;7.10;99.90
46900;DHT22;32647;49.382;7.078;2024-02-14T08:27:41;7.20;99.90
46900;DHT22;32647;49.382;7.078;2024-02-14T08:30:27;7.20;99.90
46900;DHT22;32647;49.382;7.078;2024-02-14T08:33:13;7.30;99.90
46900;DHT22;32647;49.382;7.078;2024-02-14T08:35:59;7.30;99.90
46900;DHT22;32647;49.382;7.078;2024-02-14T08:38:45;7.40;99.90
46900;DHT22;32647;49.382;7.078;2024-02-14T08:41:31;7.40;99.90
46900;DHT22;32647;49.382;7.078;2024-02-14T08:44:17;7.50;99.90
46900;DHT22;32647;49.382;7.078;2024-02-14T08:47:04;7.50;99.90
46900;DHT22;32647;49.382;7.078;2024-02-14T08:49:50;7.50;99.90
46900;DHT22;32647;49.382;7.078;2024-02-14T08:52:36;7.50;99.90
46900;DHT22;32647;49.382;7.078;2024-02-14T08:55:23;7.50;99.90
46900;DHT22;32647;49.382;7.078;2024-02-14T08:58:09;7.50;99.90
46900;DHT22;32647;49.382;7.078;2024-02-14T09:00:55;7.50;99.90
46900;DHT22;32647;49.382;7.078;2024-02-14T09:03:42;7.50;99.90
46900;DHT22;32647;49.382;7.078;2024-02-14T09:06:32;7.50;99.90
46900;DHT22;32647;49.382;7.078;2024-02-14T09:09:18;7.50;99.90
46900;DHT22;32647;49.382;7.078;2024-02-14T09:12:05;7.60;99.90
46900;DHT22;32647;49.382;7.078;2024-02-14T09:14:51;7.70;99.90
46900;DHT22;32647;49.382;7.078;2024-02-14T09:17:37;7.70;99.90
46900;DHT22;32647;49.382;7.078;2024-02-14T09:20:26;7.80;99.90
46900;DHT22;32647;49.382;7.078;2024-02-14T09:23:12;7.80;99.90
46900;DHT22;32647;49.382;7.078;2024-02-14T09:26:00;7.90;99.90
46900;DHT22;32647;49.382;7.078;2024-02-14T09:28:46;7.90;99.90
46900;DHT22;32647;49.382;7.078;2024-02-14T09:31:33;7.90;99.90
46900;DHT22;32647;49.382;7.078;2024-02-14T09:34:19;7.90;99.90
46900;DHT22;32647;49.382;7.078;2024-02-14T09:37:06;7.90;99.90
46900;DHT22;32647;49.382;7.078;2024-02-14T09:39:52;7.90;99.90
46900;DHT22;32647;49.382;7.078;2024-02-14T09:45:35;8.10;99.90
46900;DHT22;32647;49.382;7.078;2024-02-14T09:48:23;8.10;99.90
46900;DHT22;32647;49.382;7.078;2024-02-14T09:51:11;8.10;99.90
46900;DHT22;32647;49.382;7.078;2024-02-14T09:54:00;8.10;99.90
46900;DHT22;32647;49.382;7.078;2024-02-14T09:56:52;8.10;99.90
46900;DHT22;32647;49.382;7.078;2024-02-14T09:59:40;8.10;99.90
46900;DHT22;32647;49.382;7.078;2024-02-14T10:02:26;8.10;99.90
46900;DHT22;32647;49.382;7.078;2024-02-14T10:05:12;8.10;99.90
46900;DHT22;32647;49.382;7.078;2024-02-14T10:07:58;8.10;99.90
46900;DHT22;32647;49.382;7.078;2024-02-14T10:10:44;8.10;99.90
46900;DHT22;32647;49.382;7.078;2024-02-14T10:13:30;8.10;99.90
46900;DHT22;32647;49.382;7.078;2024-02-14T10:16:17;8.10;99.90
46900;DHT22;32647;49.382;7.078;2024-02-14T10:19:04;8.10;99.90
46900;DHT22;32647;49.382;7.078;2024-02-14T10:21:57;8.20;99.90
46900;DHT22;32647;49.382;7.078;2024-02-14T10:24:43;8.20;99.90
46900;DHT22;32647;49.382;7.078;2024-02-14T10:27:31;8.20;99.90
46900;DHT22;32647;49.382;7.078;2024-02-14T10:30:17;8.20;99.90
46900;DHT22;32647;49.382;7.078;2024-02-14T10:33:04;8.30;99.90
46900;DHT22;32647;49.382;7.078;2024-02-14T10:35:52;8.40;99.90
46900;DHT22;32647;49.382;7.078;2024-02-14T10:38:39;8.40;99.90
46900;DHT22;32647;49.382;7.078;2024-02-14T10:41:26;8.40;99.90
46900;DHT22;32647;49.382;7.078;2024-02-14T10:44:17;8.40;99.90
46900;DHT22;32647;49.382;7.078;2024-02-14T10:47:06;8.40;99.90
46900;DHT22;32647;49.382;7.078;2024-02-14T10:50:02;8.50;99.90
46900;DHT22;32647;49.382;7.078;2024-02-14T10:52:48;8.50;99.90
46900;DHT22;32647;49.382;7.078;2024-02-14T10:55:35;8.40;99.90
46900;DHT22;32647;49.382;7.078;2024-02-14T10:58:24;8.50;99.90
46900;DHT22;32647;49.382;7.078;2024-02-14T11:01:11;8.50;99.90
46900;DHT22;32647;49.382;7.078;2024-02-14T11:03:58;8.50;99.90
46900;DHT22;32647;49.382;7.078;2024-02-14T11:06:46;8.60;99.90
46900;DHT22;32647;49.382;7.078;2024-02-14T11:09:33;8.50;99.90
46900;DHT22;32647;49.382;7.078;2024-02-14T11:12:23;8.60;99.90
46900;DHT22;32647;49.382;7.078;2024-02-14T11:15:28;8.70;99.90
46900;DHT22;32647;49.382;7.078;2024-02-14T11:18:25;8.80;99.90
46900;DHT22;32647;49.382;7.078;2024-02-14T11:21:17;8.70;99.90
46900;DHT22;32647;49.382;7.078;2024-02-14T11:24:07;8.70;99.90
46900;DHT22;32647;49.382;7.078;2024-02-14T11:26:55;8.70;99.90
46900;DHT22;32647;49.382;7.078;2024-02-14T11:29:51;8.70;99.90
46900;DHT22;32647;49.382;7.078;2024-02-14T11:32:38;8.80;99.90
46900;DHT22;32647;49.382;7.078;2024-02-14T11:35:28;8.80;99.90
46900;DHT22;32647;49.382;7.078;2024-02-14T11:38:14;8.90;99.90
46900;DHT22;32647;49.382;7.078;2024-02-14T11:41:00;8.90;99.90
46900;DHT22;32647;49.382;7.078;2024-02-14T11:43:55;8.90;99.90
46900;DHT22;32647;49.382;7.078;2024-02-14T11:46:41;9.00;99.90
46900;DHT22;32647;49.382;7.078;2024-02-14T11:49:30;9.00;99.90
46900;DHT22;32647;49.382;7.078;2024-02-14T11:52:15;9.00;99.90
46900;DHT22;32647;49.382;7.078;2024-02-14T11:55:03;8.90;99.90
46900;DHT22;32647;49.382;7.078;2024-02-14T11:57:49;9.00;99.90
46900;DHT22;32647;49.382;7.078;2024-02-14T12:00:47;9.00;99.90
46900;DHT22;32647;49.382;7.078;2024-02-14T12:03:34;9.10;99.90
46900;DHT22;32647;49.382;7.078;2024-02-14T12:06:21;9.10;99.90
46900;DHT22;32647;49.382;7.078;2024-02-14T12:09:08;9.20;99.90
46900;DHT22;32647;49.382;7.078;2024-02-14T12:11:54;9.20;99.90
46900;DHT22;32647;49.382;7.078;2024-02-14T12:14:43;9.20;99.90
46900;DHT22;32647;49.382;7.078;2024-02-14T12:17:28;9.20;99.90
46900;DHT22;32647;49.382;7.078;2024-02-14T12:20:15;9.20;99.90
46900;DHT22;32647;49.382;7.078;2024-02-14T12:23:02;9.20;99.90
46900;DHT22;32647;49.382;7.078;2024-02-14T12:25:48;9.20;99.90
46900;DHT22;32647;49.382;7.078;2024-02-14T12:28:34;9.30;99.90
46900;DHT22;32647;49.382;7.078;2024-02-14T12:31:24;9.30;99.90
46900;DHT22;32647;49.382;7.078;2024-02-14T12:34:11;9.30;99.90
46900;DHT22;32647;49.382;7.078;2024-02-14T12:36:57;9.40;99.90
46900;DHT22;32647;49.382;7.078;2024-02-14T12:39:43;9.50;99.90
46900;DHT22;32647;49.382;7.078;2024-02-14T12:42:29;9.50;99.90
46900;DHT22;32647;49.382;7.078;2024-02-14T12:45:15;9.50;99.90
46900;DHT22;32647;49.382;7.078;2024-02-14T12:48:02;9.50;99.90
46900;DHT22;32647;49.382;7.078;2024-02-14T12:50:48;9.50;99.90
46900;DHT22;32647;49.382;7.078;2024-02-14T12:53:35;9.50;99.90
46900;DHT22;32647;49.382;7.078;2024-02-14T12:56:21;9.50;99.90
46900;DHT22;32647;49.382;7.078;2024-02-14T12:59:07;9.60;99.90
46900;DHT22;32647;49.382;7.078;2024-02-14T13:01:55;9.60;99.90
46900;DHT22;32647;49.382;7.078;2024-02-14T13:04:41;9.70;99.90
46900;DHT22;32647;49.382;7.078;2024-02-14T13:07:28;9.70;99.90
46900;DHT22;32647;49.382;7.078;2024-02-14T13:10:14;9.70;99.90
46900;DHT22;32647;49.382;7.078;2024-02-14T13:13:00;9.80;99.90
46900;DHT22;32647;49.382;7.078;2024-02-14T13:15:46;9.70;99.90
46900;DHT22;32647;49.382;7.078;2024-02-14T13:18:32;9.70;99.90
46900;DHT22;32647;49.382;7.078;2024-02-14T13:21:18;9.70;99.90
46900;DHT22;32647;49.382;7.078;2024-02-14T13:24:04;9.70;99.90
46900;DHT22;32647;49.382;7.078;2024-02-14T13:26:50;9.70;99.90
46900;DHT22;32647;49.382;7.078;2024-02-14T13:29:36;9.70;99.90
46900;DHT22;32647;49.382;7.078;2024-02-14T13:32:22;9.70;99.90
46900;DHT22;32647;49.382;7.078;2024-02-14T13:35:08;9.70;99.90
46900;DHT22;32647;49.382;7.078;2024-02-14T13:37:55;9.70;99.90
46900;DHT22;32647;49.382;7.078;2024-02-14T13:40:42;9.70;99.90
46900;DHT22;32647;49.382;7.078;2024-02-14T13:43:28;9.80;99.90
46900;DHT22;32647;49.382;7.078;2024-02-14T13:46:14;9.70;99.90
46900;DHT22;32647;49.382;7.078;2024-02-14T13:49:00;9.80;99.90
46900;DHT22;32647;49.382;7.078;2024-02-14T13:51:46;9.80;99.90
46900;DHT22;32647;49.382;7.078;2024-02-14T13:54:32;9.80;99.90
46900;DHT22;32647;49.382;7.078;2024-02-14T13:57:18;9.70;99.90
46900;DHT22;32647;49.382;7.078;2024-02-14T14:00:06;9.70;99.90
46900;DHT22;32647;49.382;7.078;2024-02-14T14:02:55;9.80;99.90
46900;DHT22;32647;49.382;7.078;2024-02-14T14:05:41;9.80;99.90
46900;DHT22;32647;49.382;7.078;2024-02-14T14:08:27;9.80;99.90
46900;DHT22;32647;49.382;7.078;2024-02-14T14:11:12;9.80;99.90
46900;DHT22;32647;49.382;7.078;2024-02-14T14:13:58;9.80;99.90
46900;DHT22;32647;49.382;7.078;2024-02-14T14:16:45;9.80;99.90
46900;DHT22;32647;49.382;7.078;2024-02-14T14:19:31;9.80;99.90
46900;DHT22;32647;49.382;7.078;2024-02-14T14:22:17;9.80;99.90
46900;DHT22;32647;49.382;7.078;2024-02-14T14:25:04;9.70;99.90
46900;DHT22;32647;49.382;7.078;2024-02-14T14:27:53;9.80;99.90
46900;DHT22;32647;49.382;7.078;2024-02-14T14:30:40;9.70;99.90
46900;DHT22;32647;49.382;7.078;2024-02-14T14:33:26;9.80;99.90
46900;DHT22;32647;49.382;7.078;2024-02-14T14:36:12;9.80;99.90
46900;DHT22;32647;49.382;7.078;2024-02-14T14:38:58;9.80;99.90
46900;DHT22;32647;49.382;7.078;2024-02-14T14:41:46;9.90;99.90
46900;DHT22;32647;49.382;7.078;2024-02-14T14:44:32;9.80;99.90
46900;DHT22;32647;49.382;7.078;2024-02-14T14:47:20;9.80;99.90
46900;DHT22;32647;49.382;7.078;2024-02-14T14:50:06;9.80;99.90
46900;DHT22;32647;49.382;7.078;2024-02-14T14:52:53;9.90;99.90
46900;DHT22;32647;49.382;7.078;2024-02-14T14:55:55;9.80;99.90
46900;DHT22;32647;49.382;7.078;2024-02-14T14:58:41;9.90;99.90
46900;DHT22;32647;49.382;7.078;2024-02-14T15:01:31;9.90;99.90
46900;DHT22;32647;49.382;7.078;2024-02-14T15:04:17;9.80;99.90
46900;DHT22;32647;49.382;7.078;2024-02-14T15:07:03;9.90;99.90
46900;DHT22;32647;49.382;7.078;2024-02-14T15:09:49;9.90;99.90
46900;DHT22;32647;49.382;7.078;2024-02-14T15:12:35;9.80;99.90
46900;DHT22;32647;49.382;7.078;2024-02-14T15:15:22;9.80;99.90
46900;DHT22;32647;49.382;7.078;2024-02-14T15:18:09;9.80;99.90
46900;DHT22;32647;49.382;7.078;2024-02-14T15:20:55;9.80;99.90
46900;DHT22;32647;49.382;7.078;2024-02-14T15:23:41;9.80;99.90
46900;DHT22;32647;49.382;7.078;2024-02-14T15:26:27;9.80;99.90
46900;DHT22;32647;49.382;7.078;2024-02-14T15:29:18;9.90;99.90
46900;DHT22;32647;49.382;7.078;2024-02-14T15:32:22;9.80;99.90
46900;DHT22;32647;49.382;7.078;2024-02-14T15:35:27;9.90;99.90
46900;DHT22;32647;49.382;7.078;2024-02-14T15:38:13;9.90;99.90
46900;DHT22;32647;49.382;7.078;2024-02-14T15:41:01;9.80;99.90
46900;DHT22;32647;49.382;7.078;2024-02-14T15:43:49;9.80;99.90
46900;DHT22;32647;49.382;7.078;2024-02-14T15:46:35;9.80;99.90
46900;DHT22;32647;49.382;7.078;2024-02-14T15:49:21;9.80;99.90
46900;DHT22;32647;49.382;7.078;2024-02-14T15:52:07;9.80;99.90
46900;DHT22;32647;49.382;7.078;2024-02-14T15:54:53;9.90;99.90
46900;DHT22;32647;49.382;7.078;2024-02-14T15:57:40;9.80;99.90
46900;DHT22;32647;49.382;7.078;2024-02-14T16:00:26;9.80;99.90
46900;DHT22;32647;49.382;7.078;2024-02-14T16:03:12;9.90;99.90
46900;DHT22;32647;49.382;7.078;2024-02-14T16:05:58;9.90;99.90
46900;DHT22;32647;49.382;7.078;2024-02-14T16:08:44;9.90;99.90
46900;DHT22;32647;49.382;7.078;2024-02-14T16:11:31;9.90;99.90
46900;DHT22;32647;49.382;7.078;2024-02-14T16:14:17;9.90;99.90
46900;DHT22;32647;49.382;7.078;2024-02-14T16:17:04;9.90;99.90
46900;DHT22;32647;49.382;7.078;2024-02-14T16:19:50;9.90;99.90
46900;DHT22;32647;49.382;7.078;2024-02-14T16:22:36;9.90;99.90
46900;DHT22;32647;49.382;7.078;2024-02-14T16:25:23;9.90;99.90
46900;DHT22;32647;49.382;7.078;2024-02-14T16:28:09;10.00;99.90
46900;DHT22;32647;49.382;7.078;2024-02-14T16:30:55;9.90;99.90
46900;DHT22;32647;49.382;7.078;2024-02-14T16:33:41;9.90;99.90
46900;DHT22;32647;49.382;7.078;2024-02-14T16:36:28;10.00;99.90
46900;DHT22;32647;49.382;7.078;2024-02-14T16:39:13;9.90;99.90
46900;DHT22;32647;49.382;7.078;2024-02-14T16:41:59;9.90;99.90
46900;DHT22;32647;49.382;7.078;2024-02-14T16:44:46;10.00;99.90
46900;DHT22;32647;49.382;7.078;2024-02-14T16:47:32;9.90;99.90
46900;DHT22;32647;49.382;7.078;2024-02-14T16:50:18;9.90;99.90
46900;DHT22;32647;49.382;7.078;2024-02-14T16:53:04;9.90;99.90
46900;DHT22;32647;49.382;7.078;2024-02-14T16:55:50;10.00;99.90
46900;DHT22;32647;49.382;7.078;2024-02-14T16:58:36;9.90;99.90
46900;DHT22;32647;49.382;7.078;2024-02-14T17:01:22;10.00;99.90
46900;DHT22;32647;49.382;7.078;2024-02-14T17:04:08;10.00;99.90
46900;DHT22;32647;49.382;7.078;2024-02-14T17:06:54;10.00;99.90
46900;DHT22;32647;49.382;7.078;2024-02-14T17:09:41;10.00;99.90
46900;DHT22;32647;49.382;7.078;2024-02-14T17:12:31;10.00;99.90
46900;DHT22;32647;49.382;7.078;2024-02-14T17:15:16;10.00;99.90
46900;DHT22;32647;49.382;7.078;2024-02-14T17:18:02;10.00;99.90
46900;DHT22;32647;49.382;7.078;2024-02-14T17:20:50;10.00;99.90
46900;DHT22;32647;49.382;7.078;2024-02-14T17:23:35;10.00;99.90
46900;DHT22;32647;49.382;7.078;2024-02-14T17:26:21;10.10;99.90
46900;DHT22;32647;49.382;7.078;2024-02-14T17:29:07;10.10;99.90
46900;DHT22;32647;49.382;7.078;2024-02-14T17:31:55;10.10;99.90
46900;DHT22;32647;49.382;7.078;2024-02-14T17:34:42;10.10;99.90
46900;DHT22;32647;49.382;7.078;2024-02-14T17:37:28;10.10;99.90
46900;DHT22;32647;49.382;7.078;2024-02-14T17:40:14;10.10;99.90
46900;DHT22;32647;49.382;7.078;2024-02-14T17:43:00;10.10;99.90
46900;DHT22;32647;49.382;7.078;2024-02-14T17:45:46;10.10;99.90
46900;DHT22;32647;49.382;7.078;2024-02-14T17:48:32;10.10;99.90
46900;DHT22;32647;49.382;7.078;2024-02-14T17:51:18;10.10;99.90
46900;DHT22;32647;49.382;7.078;2024-02-14T17:54:04;10.10;99.90